createdAt,value
2023-03-17T00:00:58.791Z,95925.00
2023-03-17T00:01:59.824Z,95923.00
2023-03-17T00:02:59.884Z,95923.00
2023-03-17T00:04:00.005Z,95915.00
2023-03-17T00:04:58.986Z,95913.00
2023-03-17T00:06:00.050Z,95913.00
2023-03-17T00:07:00.458Z,95913.00
2023-03-17T00:08:00.163Z,95911.00
2023-03-17T00:09:00.218Z,95913.00
2023-03-17T00:10:00.277Z,95909.00
2023-03-17T00:11:00.346Z,95911.00
2023-03-17T00:12:00.401Z,95911.00
2023-03-17T00:13:00.474Z,95913.00
2023-03-17T00:14:00.508Z,95909.00
2023-03-17T00:14:59.557Z,95911.00
2023-03-17T00:16:00.649Z,95911.00
2023-03-17T00:17:00.691Z,95909.00
2023-03-17T00:17:59.730Z,95907.00
2023-03-17T00:19:00.810Z,95905.00
2023-03-17T00:20:00.877Z,95905.00
2023-03-17T00:21:00.935Z,95903.00
2023-03-17T00:22:01.147Z,95905.00
2023-03-17T00:23:01.052Z,95901.00
2023-03-17T00:24:01.111Z,95901.00
2023-03-17T00:25:01.216Z,95903.00
2023-03-17T00:26:01.245Z,95901.00
2023-03-17T00:27:01.287Z,95901.00
2023-03-17T00:28:01.369Z,95900.00
2023-03-17T00:29:01.440Z,95901.00
2023-03-17T00:30:00.492Z,95900.00
2023-03-17T00:31:00.553Z,95898.00
2023-03-17T00:32:00.599Z,95896.00
2023-03-17T00:33:00.799Z,95896.00
2023-03-17T00:34:01.712Z,95894.00
2023-03-17T00:35:01.764Z,95894.00
2023-03-17T00:36:01.903Z,95894.00
2023-03-17T00:37:01.885Z,95888.00
2023-03-17T00:38:01.933Z,95884.00
2023-03-17T00:39:02.006Z,95884.00
2023-03-17T00:40:02.058Z,95884.00
2023-03-17T00:41:02.119Z,95882.00
2023-03-17T00:42:01.181Z,95884.00
2023-03-17T00:43:02.226Z,95884.00
2023-03-17T00:44:02.281Z,95884.00
2023-03-17T00:45:02.376Z,95884.00
2023-03-17T00:46:02.406Z,95884.00
2023-03-17T00:47:01.592Z,95878.00
2023-03-17T00:48:02.540Z,95876.00
2023-03-17T00:49:02.608Z,95874.00
2023-03-17T00:50:01.654Z,95874.00
2023-03-17T00:51:02.740Z,95872.00
2023-03-17T00:52:01.805Z,95870.00
2023-03-17T00:53:02.851Z,95872.00
2023-03-17T00:54:01.938Z,95872.00
2023-03-17T00:55:01.980Z,95876.00
2023-03-17T00:56:03.050Z,95874.00
2023-03-17T00:57:03.117Z,95874.00
2023-03-17T00:58:02.185Z,95874.00
2023-03-17T00:59:02.245Z,95872.00
2023-03-17T01:00:03.344Z,95870.00
2023-03-17T01:01:03.496Z,95868.00
2023-03-17T01:02:03.478Z,95868.00
2023-03-17T01:03:02.488Z,95868.00
2023-03-17T01:04:03.560Z,95862.00
2023-03-17T01:05:06.577Z,95868.00
2023-03-17T01:06:03.609Z,95862.00
2023-03-17T01:07:03.605Z,95862.00
2023-03-17T01:08:02.596Z,95860.00
2023-03-17T01:09:03.592Z,95860.00
2023-03-17T01:10:02.575Z,95856.00
2023-03-17T01:11:03.592Z,95853.00
2023-03-17T01:12:03.566Z,95851.00
2023-03-17T01:13:03.552Z,95853.00
2023-03-17T01:14:03.556Z,95851.00
2023-03-17T01:15:02.561Z,95851.00
2023-03-17T01:16:03.579Z,95847.00
2023-03-17T01:17:03.566Z,95847.00
2023-03-17T01:18:03.536Z,95845.00
2023-03-17T01:19:03.515Z,95843.00
2023-03-17T01:20:03.509Z,95843.00
2023-03-17T01:21:03.514Z,95843.00
2023-03-17T01:22:03.501Z,95839.00
2023-03-17T01:23:03.497Z,95841.00
2023-03-17T01:24:03.497Z,95841.00
2023-03-17T01:25:03.565Z,95839.00
2023-03-17T01:26:03.569Z,95837.00
2023-03-17T01:27:02.601Z,95835.00
2023-03-17T01:28:03.606Z,95835.00
2023-03-17T01:29:02.618Z,95835.00
2023-03-17T01:30:03.653Z,95835.00
2023-03-17T01:31:03.684Z,95833.00
2023-03-17T01:32:03.710Z,95833.00
2023-03-17T01:33:03.781Z,95833.00
2023-03-17T01:34:03.775Z,95837.00
2023-03-17T01:35:02.836Z,95837.00
2023-03-17T01:36:03.970Z,95839.00
2023-03-17T01:37:03.960Z,95837.00
2023-03-17T01:38:04.017Z,95835.00
2023-03-17T01:39:03.084Z,95835.00
2023-03-17T01:40:03.151Z,95835.00
2023-03-17T01:41:03.209Z,95831.00
2023-03-17T01:42:04.276Z,95829.00
2023-03-17T01:43:04.336Z,95831.00
2023-03-17T01:44:04.384Z,95831.00
2023-03-17T01:45:04.443Z,95831.00
2023-03-17T01:46:03.546Z,95833.00
2023-03-17T01:47:04.528Z,95831.00
2023-03-17T01:48:04.554Z,95833.00
2023-03-17T01:49:04.614Z,95833.00
2023-03-17T01:50:03.606Z,95831.00
2023-03-17T01:51:03.627Z,95831.00
2023-03-17T01:52:03.656Z,95831.00
2023-03-17T01:53:03.672Z,95829.00
2023-03-17T01:54:04.675Z,95831.00
2023-03-17T01:55:03.693Z,95831.00
2023-03-17T01:56:04.717Z,95833.00
2023-03-17T01:57:04.737Z,95831.00
2023-03-17T01:58:04.757Z,95831.00
2023-03-17T01:59:04.786Z,95829.00
2023-03-17T02:00:04.807Z,95833.00
2023-03-17T02:01:04.921Z,95831.00
2023-03-17T02:02:04.935Z,95831.00
2023-03-17T02:03:04.964Z,95831.00
2023-03-17T02:04:05.110Z,95831.00
2023-03-17T02:05:04.109Z,95831.00
2023-03-17T02:06:05.122Z,95831.00
2023-03-17T02:07:04.123Z,95833.00
2023-03-17T02:08:05.142Z,95829.00
2023-03-17T02:09:05.152Z,95829.00
2023-03-17T02:10:05.201Z,95827.00
2023-03-17T02:11:05.330Z,95825.00
2023-03-17T02:12:05.152Z,95821.00
2023-03-17T02:13:04.275Z,95817.00
2023-03-17T02:14:04.229Z,95817.00
2023-03-17T02:15:05.232Z,95813.00
2023-03-17T02:16:05.264Z,95815.00
2023-03-17T02:17:05.272Z,95815.00
2023-03-17T02:18:05.303Z,95811.00
2023-03-17T02:19:05.287Z,95809.00
2023-03-17T02:20:05.303Z,95811.00
2023-03-17T02:21:05.381Z,95811.00
2023-03-17T02:22:05.355Z,95811.00
2023-03-17T02:23:05.375Z,95809.00
2023-03-17T02:24:05.413Z,95811.00
2023-03-17T02:25:05.479Z,95809.00
2023-03-17T02:26:05.486Z,95809.00
2023-03-17T02:27:05.471Z,95809.00
2023-03-17T02:28:05.479Z,95809.00
2023-03-17T02:29:05.486Z,95807.00
2023-03-17T02:30:04.492Z,95803.00
2023-03-17T02:31:05.607Z,95803.00
2023-03-17T02:32:05.479Z,95803.00
2023-03-17T02:33:05.554Z,95807.00
2023-03-17T02:34:05.474Z,95803.00
2023-03-17T02:35:05.178Z,95801.00
2023-03-17T02:36:04.546Z,95803.00
2023-03-17T02:37:05.536Z,95805.00
2023-03-17T02:38:04.462Z,95807.00
2023-03-17T02:39:05.481Z,95807.00
2023-03-17T02:40:04.498Z,95807.00
2023-03-17T02:41:05.495Z,95809.00
2023-03-17T02:42:05.497Z,95809.00
2023-03-17T02:43:05.496Z,95809.00
2023-03-17T02:44:05.502Z,95809.00
2023-03-17T02:45:05.486Z,95811.00
2023-03-17T02:46:05.571Z,95809.00
2023-03-17T02:47:05.538Z,95809.00
2023-03-17T02:48:05.491Z,95809.00
2023-03-17T02:49:05.530Z,95809.00
2023-03-17T02:50:05.477Z,95809.00
2023-03-17T02:51:05.514Z,95805.00
2023-03-17T02:52:04.480Z,95807.00
2023-03-17T02:53:04.499Z,95805.00
2023-03-17T02:54:05.461Z,95803.00
2023-03-17T02:55:04.457Z,95803.00
2023-03-17T02:56:05.457Z,95805.00
2023-03-17T02:57:05.454Z,95805.00
2023-03-17T02:58:04.452Z,95801.00
2023-03-17T02:59:05.449Z,95801.00
2023-03-17T03:00:05.468Z,95798.00
2023-03-17T03:01:05.484Z,95798.00
2023-03-17T03:02:05.445Z,95794.00
2023-03-17T03:03:05.454Z,95794.00
2023-03-17T03:04:05.437Z,95794.00
2023-03-17T03:05:04.417Z,95796.00
2023-03-17T03:06:05.422Z,95794.00
2023-03-17T03:07:05.425Z,95796.00
2023-03-17T03:08:05.407Z,95794.00
2023-03-17T03:09:05.442Z,95794.00
2023-03-17T03:10:05.427Z,95794.00
2023-03-17T03:11:05.433Z,95792.00
2023-03-17T03:12:05.431Z,95796.00
2023-03-17T03:13:05.405Z,95792.00
2023-03-17T03:14:05.390Z,95790.00
2023-03-17T03:15:05.439Z,95786.00
2023-03-17T03:16:04.455Z,95782.00
2023-03-17T03:17:05.404Z,95784.00
2023-03-17T03:18:05.396Z,95780.00
2023-03-17T03:19:04.422Z,95784.00
2023-03-17T03:20:05.388Z,95780.00
2023-03-17T03:21:04.386Z,95780.00
2023-03-17T03:22:04.430Z,95780.00
2023-03-17T03:23:05.404Z,95780.00
2023-03-17T03:24:04.403Z,95782.00
2023-03-17T03:25:05.437Z,95784.00
2023-03-17T03:26:04.453Z,95782.00
2023-03-17T03:27:04.453Z,95784.00
2023-03-17T03:28:05.409Z,95784.00
2023-03-17T03:29:05.384Z,95786.00
2023-03-17T03:30:05.403Z,95780.00
2023-03-17T03:31:05.437Z,95784.00
2023-03-17T03:32:05.393Z,95786.00
2023-03-17T03:33:04.525Z,95786.00
2023-03-17T03:34:05.411Z,95786.00
2023-03-17T03:35:05.398Z,95786.00
2023-03-17T03:36:05.496Z,95788.00
2023-03-17T03:37:05.471Z,95790.00
2023-03-17T03:38:04.434Z,95790.00
2023-03-17T03:39:04.404Z,95788.00
2023-03-17T03:40:05.412Z,95788.00
2023-03-17T03:41:04.443Z,95788.00
2023-03-17T03:42:04.486Z,95790.00
2023-03-17T03:43:16.369Z,95792.00
2023-03-17T03:44:05.421Z,95790.00
2023-03-17T03:45:05.415Z,95792.00
2023-03-17T03:46:04.520Z,95792.00
2023-03-17T03:47:05.416Z,95792.00
2023-03-17T03:48:05.404Z,95792.00
2023-03-17T03:49:04.414Z,95794.00
2023-03-17T03:50:05.382Z,95796.00
2023-03-17T03:51:04.403Z,95794.00
2023-03-17T03:52:05.366Z,95796.00
2023-03-17T03:53:04.381Z,95798.00
2023-03-17T03:54:05.352Z,95798.00
2023-03-17T03:55:05.350Z,95796.00
2023-03-17T03:56:05.359Z,95799.00
2023-03-17T03:57:05.357Z,95796.00
2023-03-17T03:58:04.334Z,95796.00
2023-03-17T03:59:05.340Z,95792.00
2023-03-17T04:00:05.311Z,95794.00
2023-03-17T04:01:04.319Z,95788.00
2023-03-17T04:02:05.302Z,95788.00
2023-03-17T04:03:05.443Z,95786.00
2023-03-17T04:04:05.281Z,95786.00
2023-03-17T04:05:04.363Z,95784.00
2023-03-17T04:06:05.264Z,95784.00
2023-03-17T04:07:05.284Z,95784.00
2023-03-17T04:08:05.265Z,95786.00
2023-03-17T04:09:05.241Z,95786.00
2023-03-17T04:10:05.245Z,95786.00
2023-03-17T04:11:05.255Z,95782.00
2023-03-17T04:12:05.229Z,95782.00
2023-03-17T04:13:05.255Z,95780.00
2023-03-17T04:14:05.215Z,95778.00
2023-03-17T04:15:05.210Z,95776.00
2023-03-17T04:16:05.267Z,95776.00
2023-03-17T04:17:05.233Z,95774.00
2023-03-17T04:18:05.183Z,95770.00
2023-03-17T04:19:05.215Z,95772.00
2023-03-17T04:20:05.187Z,95772.00
2023-03-17T04:21:05.167Z,95772.00
2023-03-17T04:22:05.168Z,95772.00
2023-03-17T04:23:05.169Z,95774.00
2023-03-17T04:24:05.180Z,95774.00
2023-03-17T04:25:05.130Z,95776.00
2023-03-17T04:26:04.201Z,95774.00
2023-03-17T04:27:06.209Z,95772.00
2023-03-17T04:28:04.118Z,95774.00
2023-03-17T04:29:04.134Z,95770.00
2023-03-17T04:30:04.098Z,95766.00
2023-03-17T04:31:05.088Z,95764.00
2023-03-17T04:32:04.087Z,95768.00
2023-03-17T04:33:05.152Z,95768.00
2023-03-17T04:34:05.078Z,95772.00
2023-03-17T04:35:05.072Z,95774.00
2023-03-17T04:36:05.237Z,95774.00
2023-03-17T04:37:05.052Z,95774.00
2023-03-17T04:38:05.073Z,95768.00
2023-03-17T04:39:04.114Z,95766.00
2023-03-17T04:40:04.019Z,95762.00
2023-03-17T04:41:05.027Z,95760.00
2023-03-17T04:42:05.003Z,95760.00
2023-03-17T04:43:04.997Z,95758.00
2023-03-17T04:44:05.044Z,95758.00
2023-03-17T04:45:05.070Z,95756.00
2023-03-17T04:46:05.041Z,95754.00
2023-03-17T04:47:03.982Z,95756.00
2023-03-17T04:48:04.977Z,95756.00
2023-03-17T04:49:04.976Z,95754.00
2023-03-17T04:50:04.960Z,95752.00
2023-03-17T04:51:03.951Z,95751.00
2023-03-17T04:52:04.948Z,95747.00
2023-03-17T04:53:03.954Z,95747.00
2023-03-17T04:54:04.937Z,95747.00
2023-03-17T04:55:04.949Z,95752.00
2023-03-17T04:56:04.975Z,95752.00
2023-03-17T04:57:05.007Z,95751.00
2023-03-17T04:58:05.028Z,95751.00
2023-03-17T04:59:05.083Z,95747.00
2023-03-17T05:00:05.086Z,95751.00
2023-03-17T05:01:05.235Z,95749.00
2023-03-17T05:02:04.247Z,95747.00
2023-03-17T05:03:09.027Z,95745.00
2023-03-17T05:04:05.188Z,95741.00
2023-03-17T05:05:05.165Z,95741.00
2023-03-17T05:06:04.165Z,95739.00
2023-03-17T05:07:05.158Z,95741.00
2023-03-17T05:08:05.150Z,95741.00
2023-03-17T05:09:05.172Z,95743.00
2023-03-17T05:10:05.134Z,95745.00
2023-03-17T05:11:05.139Z,95747.00
2023-03-17T05:12:05.115Z,95747.00
2023-03-17T05:13:04.121Z,95749.00
2023-03-17T05:14:04.113Z,95751.00
2023-03-17T05:15:05.186Z,95751.00
2023-03-17T05:16:04.097Z,95752.00
2023-03-17T05:17:05.224Z,95751.00
2023-03-17T05:18:05.163Z,95752.00
2023-03-17T05:19:05.082Z,95751.00
2023-03-17T05:20:05.062Z,95749.00
2023-03-17T05:21:04.056Z,95747.00
2023-03-17T05:22:05.051Z,95749.00
2023-03-17T05:23:05.061Z,95743.00
2023-03-17T05:24:05.044Z,95745.00
2023-03-17T05:25:05.042Z,95743.00
2023-03-17T05:26:05.027Z,95743.00
2023-03-17T05:27:05.015Z,95739.00
2023-03-17T05:28:05.011Z,95735.00
2023-03-17T05:29:05.004Z,95735.00
2023-03-17T05:30:05.007Z,95739.00
2023-03-17T05:31:05.091Z,95739.00
2023-03-17T05:32:04.997Z,95741.00
2023-03-17T05:33:05.173Z,95741.00
2023-03-17T05:34:04.126Z,95741.00
2023-03-17T05:35:05.134Z,95747.00
2023-03-17T05:36:04.312Z,95749.00
2023-03-17T05:37:04.302Z,95754.00
2023-03-17T05:38:05.302Z,95754.00
2023-03-17T05:39:05.379Z,95756.00
2023-03-17T05:40:05.425Z,95756.00
2023-03-17T05:41:05.496Z,95756.00
2023-03-17T05:42:04.544Z,95758.00
2023-03-17T05:43:05.627Z,95756.00
2023-03-17T05:44:05.678Z,95756.00
2023-03-17T05:45:05.744Z,95754.00
2023-03-17T05:46:05.863Z,95754.00
2023-03-17T05:47:05.951Z,95751.00
2023-03-17T05:48:05.935Z,95751.00
2023-03-17T05:49:06.056Z,95751.00
2023-03-17T05:51:24.097Z,95749.00
2023-03-17T05:52:25.091Z,95745.00
2023-03-17T05:53:25.079Z,95747.00
2023-03-17T05:54:25.115Z,95743.00
2023-03-17T05:55:24.071Z,95747.00
2023-03-17T05:56:24.071Z,95747.00
2023-03-17T05:57:25.044Z,95749.00
2023-03-17T05:58:25.037Z,95752.00
2023-03-17T05:59:25.042Z,95752.00
2023-03-17T06:00:25.034Z,95754.00
2023-03-17T06:01:24.026Z,95754.00
2023-03-17T06:02:25.027Z,95756.00
2023-03-17T06:03:24.069Z,95752.00
2023-03-17T06:04:25.038Z,95752.00
2023-03-17T06:23:26.294Z,95743.00
2023-03-17T06:24:25.393Z,95745.00
2023-03-17T06:25:25.471Z,95747.00
2023-03-17T06:26:25.511Z,95741.00
2023-03-17T06:28:25.612Z,95743.00
2023-03-17T06:29:25.690Z,95747.00
2023-03-17T06:31:25.798Z,95743.00
2023-03-17T06:32:25.896Z,95743.00
2023-03-17T06:33:25.847Z,95747.00
2023-03-17T06:34:25.922Z,95747.00
2023-03-17T06:35:26.047Z,95747.00
2023-03-17T06:36:26.055Z,95749.00
2023-03-17T06:37:26.095Z,95751.00
2023-03-17T06:38:26.122Z,95752.00
2023-03-17T06:40:25.237Z,95754.00
2023-03-17T06:41:26.298Z,95752.00
2023-03-17T06:42:26.301Z,95752.00
2023-03-17T06:43:26.346Z,95751.00
2023-03-17T06:44:26.359Z,95749.00
2023-03-17T06:45:26.699Z,95749.00
2023-03-17T06:46:26.458Z,95749.00
2023-03-17T06:47:26.448Z,95749.00
2023-03-17T06:48:26.491Z,95747.00
2023-03-17T06:49:26.573Z,95745.00
2023-03-17T06:50:26.825Z,95749.00
2023-03-17T06:51:26.973Z,95747.00
2023-03-17T06:52:26.655Z,95751.00
2023-03-17T06:53:26.816Z,95751.00
2023-03-17T06:54:26.998Z,95754.00
2023-03-17T06:55:26.839Z,95756.00
2023-03-17T06:56:30.233Z,95756.00
2023-03-17T06:57:26.647Z,95751.00
2023-03-17T06:58:25.826Z,95751.00
2023-03-17T06:59:27.484Z,95752.00
2023-03-17T07:00:25.644Z,95747.00
2023-03-17T07:01:25.710Z,95747.00
2023-03-17T07:02:26.863Z,95741.00
2023-03-17T07:03:26.768Z,95743.00
2023-03-17T07:04:26.723Z,95745.00
2023-03-17T07:05:26.653Z,95743.00
2023-03-17T07:06:26.663Z,95745.00
2023-03-17T07:07:26.043Z,95741.00
2023-03-17T07:08:25.799Z,95745.00
2023-03-17T07:09:26.885Z,95745.00
2023-03-17T07:10:26.824Z,95749.00
2023-03-17T07:11:25.876Z,95751.00
2023-03-17T07:12:26.901Z,95752.00
2023-03-17T07:13:26.839Z,95751.00
2023-03-17T07:14:25.986Z,95752.00
2023-03-17T07:15:26.944Z,95754.00
2023-03-17T07:16:26.996Z,95754.00
2023-03-17T07:17:26.970Z,95749.00
2023-03-17T07:18:26.031Z,95751.00
2023-03-17T07:19:27.098Z,95747.00
2023-03-17T07:20:27.140Z,95747.00
2023-03-17T07:21:27.193Z,95743.00
2023-03-17T07:22:27.176Z,95743.00
2023-03-17T07:23:27.208Z,95741.00
2023-03-17T07:24:27.557Z,95747.00
2023-03-17T07:25:27.336Z,95747.00
2023-03-17T07:26:27.293Z,95747.00
2023-03-17T07:27:26.320Z,95745.00
2023-03-17T07:28:26.321Z,95745.00
2023-03-17T07:29:26.297Z,95741.00
2023-03-17T07:30:27.264Z,95739.00
2023-03-17T07:31:26.421Z,95739.00
2023-03-17T07:32:27.394Z,95735.00
2023-03-17T07:33:26.264Z,95737.00
2023-03-17T07:34:27.349Z,95733.00
2023-03-17T07:35:27.313Z,95733.00
2023-03-17T07:36:27.268Z,95731.00
2023-03-17T07:37:27.294Z,95731.00
2023-03-17T07:38:27.328Z,95729.00
2023-03-17T07:39:26.277Z,95729.00
2023-03-17T07:40:27.309Z,95731.00
2023-03-17T07:41:27.376Z,95729.00
2023-03-17T07:42:27.283Z,95731.00
2023-03-17T07:43:27.346Z,95731.00
2023-03-17T07:44:27.350Z,95729.00
2023-03-17T07:45:27.461Z,95727.00
2023-03-17T07:46:27.481Z,95727.00
2023-03-17T07:47:27.478Z,95727.00
2023-03-17T07:48:27.509Z,95729.00
2023-03-17T07:49:40.499Z,95733.00
2023-03-17T07:50:27.595Z,95733.00
2023-03-17T07:51:27.538Z,95733.00
2023-03-17T07:52:26.654Z,95731.00
2023-03-17T07:53:27.579Z,95731.00
2023-03-17T07:54:27.539Z,95727.00
2023-03-17T07:55:27.831Z,95725.00
2023-03-17T07:56:27.588Z,95723.00
2023-03-17T07:57:27.596Z,95719.00
2023-03-17T07:58:27.559Z,95717.00
2023-03-17T07:59:26.494Z,95715.00
2023-03-17T08:00:27.553Z,95715.00
2023-03-17T08:01:26.484Z,95717.00
2023-03-17T08:02:26.549Z,95717.00
2023-03-17T08:03:27.500Z,95721.00
2023-03-17T08:04:27.476Z,95719.00
2023-03-17T08:05:27.455Z,95721.00
2023-03-17T08:06:27.477Z,95717.00
2023-03-17T08:07:27.461Z,95719.00
2023-03-17T08:08:27.477Z,95713.00
2023-03-17T08:09:27.417Z,95711.00
2023-03-17T08:10:27.433Z,95709.00
2023-03-17T08:11:29.370Z,95713.00
2023-03-17T08:12:27.449Z,95709.00
2023-03-17T08:13:27.419Z,95715.00
2023-03-17T08:14:26.389Z,95711.00
2023-03-17T08:15:27.389Z,95713.00
2023-03-17T08:16:27.421Z,95711.00
2023-03-17T08:17:27.435Z,95707.00
2023-03-17T08:18:27.389Z,95709.00
2023-03-17T08:19:27.355Z,95711.00
2023-03-17T08:20:27.383Z,95707.00
2023-03-17T08:21:27.362Z,95705.00
2023-03-17T08:22:27.364Z,95705.00
2023-03-17T08:23:27.385Z,95702.00
2023-03-17T08:24:27.334Z,95702.00
2023-03-17T08:25:27.366Z,95702.00
2023-03-17T08:26:27.334Z,95702.00
2023-03-17T08:27:27.357Z,95702.00
2023-03-17T08:28:27.355Z,95704.00
2023-03-17T08:29:26.325Z,95704.00
2023-03-17T08:30:27.516Z,95704.00
2023-03-17T08:31:27.384Z,95702.00
2023-03-17T08:32:27.410Z,95700.00
2023-03-17T08:33:27.279Z,95702.00
2023-03-17T08:34:26.379Z,95700.00
2023-03-17T08:35:27.353Z,95702.00
2023-03-17T08:36:27.252Z,95704.00
2023-03-17T08:37:27.350Z,95700.00
2023-03-17T08:38:27.266Z,95700.00
2023-03-17T08:39:27.229Z,95698.00
2023-03-17T08:40:26.259Z,95694.00
2023-03-17T08:41:27.241Z,95694.00
2023-03-17T08:42:27.232Z,95696.00
2023-03-17T08:43:27.206Z,95692.00
2023-03-17T08:44:27.229Z,95692.00
2023-03-17T08:45:27.216Z,95692.00
2023-03-17T08:46:27.485Z,95690.00
2023-03-17T08:47:27.218Z,95690.00
2023-03-17T08:48:27.195Z,95690.00
2023-03-17T08:49:27.238Z,95688.00
2023-03-17T08:50:27.541Z,95686.00
2023-03-17T08:51:27.470Z,95684.00
2023-03-17T08:52:27.187Z,95684.00
2023-03-17T08:53:27.172Z,95684.00
2023-03-17T08:54:27.359Z,95684.00
2023-03-17T08:55:26.145Z,95678.00
2023-03-17T08:56:27.243Z,95676.00
2023-03-17T08:57:26.119Z,95678.00
2023-03-17T08:58:27.180Z,95676.00
2023-03-17T08:59:27.177Z,95674.00
2023-03-17T09:00:26.232Z,95674.00
2023-03-17T09:01:27.466Z,95668.00
2023-03-17T09:02:27.358Z,95666.00
2023-03-17T09:03:26.419Z,95656.00
2023-03-17T09:04:27.491Z,95656.00
2023-03-17T09:05:27.514Z,95654.00
2023-03-17T09:06:27.541Z,95651.00
2023-03-17T09:07:26.584Z,95652.00
2023-03-17T09:08:27.659Z,95651.00
2023-03-17T09:09:27.729Z,95652.00
2023-03-17T09:10:26.810Z,95651.00
2023-03-17T09:11:26.809Z,95652.00
2023-03-17T09:12:26.971Z,95651.00
2023-03-17T09:13:28.033Z,95651.00
2023-03-17T09:14:27.862Z,95649.00
2023-03-17T09:15:27.891Z,95647.00
2023-03-17T09:16:27.081Z,95647.00
2023-03-17T09:17:27.874Z,95645.00
2023-03-17T09:18:27.883Z,95645.00
2023-03-17T09:19:27.870Z,95645.00
2023-03-17T09:20:27.939Z,95645.00
2023-03-17T09:21:27.900Z,95643.00
2023-03-17T09:22:28.027Z,95645.00
2023-03-17T09:23:28.193Z,95645.00
2023-03-17T09:24:27.880Z,95641.00
2023-03-17T09:25:26.906Z,95639.00
2023-03-17T09:26:27.908Z,95639.00
2023-03-17T09:27:27.909Z,95633.00
2023-03-17T09:28:27.897Z,95631.00
2023-03-17T09:29:27.948Z,95633.00
2023-03-17T09:30:27.942Z,95627.00
2023-03-17T09:31:28.086Z,95629.00
2023-03-17T09:32:28.028Z,95627.00
2023-03-17T09:33:27.051Z,95627.00
2023-03-17T09:34:28.001Z,95623.00
2023-03-17T09:35:28.086Z,95623.00
2023-03-17T09:36:28.179Z,95621.00
2023-03-17T09:37:27.146Z,95619.00
2023-03-17T09:38:28.485Z,95621.00
2023-03-17T09:39:28.243Z,95619.00
2023-03-17T09:40:28.785Z,95619.00
2023-03-17T09:41:28.446Z,95615.00
2023-03-17T09:42:28.374Z,95617.00
2023-03-17T09:43:27.473Z,95615.00
2023-03-17T09:44:28.503Z,95611.00
2023-03-17T09:45:28.523Z,95613.00
2023-03-17T09:46:28.594Z,95607.00
2023-03-17T09:47:28.571Z,95604.00
2023-03-17T09:48:28.656Z,95598.00
2023-03-17T09:49:28.660Z,95604.00
2023-03-17T09:50:28.961Z,95598.00
2023-03-17T09:51:28.764Z,95596.00
2023-03-17T09:52:28.689Z,95598.00
2023-03-17T09:53:28.710Z,95596.00
2023-03-17T09:54:28.771Z,95596.00
2023-03-17T09:55:29.114Z,95594.00
2023-03-17T09:56:29.380Z,95598.00
2023-03-17T09:57:29.115Z,95596.00
2023-03-17T09:58:27.949Z,95596.00
2023-03-17T09:59:28.188Z,95594.00
2023-03-17T10:00:29.181Z,95596.00
2023-03-17T10:01:28.127Z,95594.00
2023-03-17T10:02:28.106Z,95590.00
2023-03-17T10:03:29.457Z,95588.00
2023-03-17T10:04:29.357Z,95584.00
2023-03-17T10:05:28.283Z,95588.00
2023-03-17T10:06:29.230Z,95588.00
2023-03-17T10:07:28.272Z,95582.00
2023-03-17T10:08:32.066Z,95582.00
2023-03-17T10:09:29.328Z,95582.00
2023-03-17T10:10:28.787Z,95582.00
2023-03-17T10:11:28.281Z,95580.00
2023-03-17T10:12:28.341Z,95578.00
2023-03-17T10:13:29.239Z,95572.00
2023-03-17T10:14:29.263Z,95574.00
2023-03-17T10:15:29.786Z,95570.00
2023-03-17T10:16:29.270Z,95570.00
2023-03-17T10:17:29.250Z,95566.00
2023-03-17T10:18:29.257Z,95568.00
2023-03-17T10:19:29.307Z,95564.00
2023-03-17T10:20:29.201Z,95562.00
2023-03-17T10:21:29.192Z,95560.00
2023-03-17T10:22:29.191Z,95560.00
2023-03-17T10:23:29.223Z,95557.00
2023-03-17T10:24:29.193Z,95555.00
2023-03-17T10:25:29.786Z,95553.00
2023-03-17T10:26:28.219Z,95549.00
2023-03-17T10:27:29.152Z,95549.00
2023-03-17T10:28:29.150Z,95549.00
2023-03-17T10:29:29.136Z,95547.00
2023-03-17T10:30:28.174Z,95545.00
2023-03-17T10:31:28.175Z,95539.00
2023-03-17T10:32:29.205Z,95543.00
2023-03-17T10:33:29.131Z,95541.00
2023-03-17T10:34:29.139Z,95539.00
2023-03-17T10:35:29.752Z,95539.00
2023-03-17T10:36:29.110Z,95537.00
2023-03-17T10:37:29.159Z,95533.00
2023-03-17T10:38:29.092Z,95533.00
2023-03-17T10:39:32.112Z,95529.00
2023-03-17T10:40:29.478Z,95531.00
2023-03-17T10:41:29.089Z,95525.00
2023-03-17T10:42:29.598Z,95527.00
2023-03-17T10:43:29.061Z,95525.00
2023-03-17T10:44:29.049Z,95521.00
2023-03-17T10:45:29.066Z,95521.00
2023-03-17T10:46:28.471Z,95517.00
2023-03-17T10:47:29.048Z,95511.00
2023-03-17T10:48:29.143Z,95513.00
2023-03-17T10:49:29.076Z,95515.00
2023-03-17T10:50:29.569Z,95511.00
2023-03-17T10:51:28.447Z,95515.00
2023-03-17T10:52:28.011Z,95511.00
2023-03-17T10:53:29.244Z,95511.00
2023-03-17T10:54:29.225Z,95513.00
2023-03-17T10:55:29.015Z,95509.00
2023-03-17T10:56:28.115Z,95505.00
2023-03-17T10:57:29.359Z,95502.00
2023-03-17T10:58:28.133Z,95502.00
2023-03-17T10:59:29.078Z,95500.00
2023-03-17T11:00:28.237Z,95498.00
2023-03-17T11:01:28.981Z,95498.00
2023-03-17T11:02:28.966Z,95500.00
2023-03-17T11:03:29.026Z,95496.00
2023-03-17T11:04:28.990Z,95496.00
2023-03-17T11:05:28.983Z,95496.00
2023-03-17T11:06:27.950Z,95494.00
2023-03-17T11:07:29.159Z,95490.00
2023-03-17T11:08:28.893Z,95486.00
2023-03-17T11:09:28.899Z,95484.00
2023-03-17T11:10:29.329Z,95484.00
2023-03-17T11:11:29.006Z,95482.00
2023-03-17T11:12:28.109Z,95480.00
2023-03-17T11:13:28.184Z,95474.00
2023-03-17T11:14:29.202Z,95476.00
2023-03-17T11:15:28.244Z,95472.00
2023-03-17T11:16:29.366Z,95470.00
2023-03-17T11:17:29.365Z,95470.00
2023-03-17T11:18:30.979Z,95470.00
2023-03-17T11:19:29.356Z,95468.00
2023-03-17T11:20:29.648Z,95466.00
2023-03-17T11:21:29.340Z,95463.00
2023-03-17T11:22:29.374Z,95463.00
2023-03-17T11:23:29.554Z,95459.00
2023-03-17T11:24:31.396Z,95455.00
2023-03-17T11:25:28.317Z,95453.00
2023-03-17T11:26:29.345Z,95457.00
2023-03-17T11:27:29.364Z,95453.00
2023-03-17T11:28:29.464Z,95453.00
2023-03-17T11:29:29.345Z,95449.00
2023-03-17T11:30:29.624Z,95449.00
2023-03-17T11:31:29.291Z,95445.00
2023-03-17T11:32:28.383Z,95445.00
2023-03-17T11:33:29.255Z,95447.00
2023-03-17T11:34:28.266Z,95443.00
2023-03-17T11:35:29.229Z,95439.00
2023-03-17T11:36:29.229Z,95441.00
2023-03-17T11:37:29.279Z,95437.00
2023-03-17T11:38:29.253Z,95435.00
2023-03-17T11:39:29.289Z,95433.00
2023-03-17T11:41:28.435Z,95431.00
2023-03-17T11:42:29.421Z,95427.00
2023-03-17T11:43:29.192Z,95425.00
2023-03-17T11:44:29.180Z,95425.00
2023-03-17T11:45:29.181Z,95421.00
2023-03-17T11:46:28.234Z,95419.00
2023-03-17T11:47:29.921Z,95415.00
2023-03-17T11:48:29.150Z,95417.00
2023-03-17T11:49:29.151Z,95419.00
2023-03-17T11:50:29.576Z,95415.00
2023-03-17T11:51:29.255Z,95415.00
2023-03-17T11:52:29.297Z,95413.00
2023-03-17T11:55:29.426Z,95398.00
2023-03-17T11:56:29.394Z,95396.00
2023-03-17T11:57:29.435Z,95396.00
2023-03-17T11:58:29.403Z,95396.00
2023-03-17T11:59:29.424Z,95392.00
2023-03-17T12:00:29.861Z,95392.00
2023-03-17T12:01:29.444Z,95390.00
2023-03-17T12:02:29.447Z,95390.00
2023-03-17T12:03:29.540Z,95390.00
2023-03-17T12:04:28.447Z,95390.00
2023-03-17T12:05:29.387Z,95390.00
2023-03-17T12:06:29.383Z,95392.00
2023-03-17T12:07:29.382Z,95388.00
2023-03-17T12:08:29.410Z,95388.00
2023-03-17T12:09:29.403Z,95386.00
2023-03-17T12:10:29.778Z,95386.00